Time;durP1;ratioP1;P1;durP2;ratioP2;P2;SDS_P1;SDS_P2;PMS_P1;PMS_P2;Temp;Humidity;BMP_temperature;BMP_pressure;BME280_temperature;BME280_humidity;BME280_pressure;Samples;Min_cycle;Max_cycle;Signal;HPM_P1;HPM_P2
2022/10/21 00:00:57;;;;;;;14.13;10.30;;;;;;;;;;5082885;28;20250;-84
2022/10/21 00:03:27;;;;;;;31.63;20.63;;;;;;;;;;5096559;28;20232;-84
2022/10/21 00:05:55;;;;;;;30.83;17.43;;;;;;;;;;5096990;28;20269;-84
2022/10/21 00:08:24;;;;;;;28.37;17.80;;;;;;;;;;5083288;28;20207;-84
2022/10/21 00:10:52;;;;;;;29.07;20.53;;;;;;;;;;5096982;28;20201;-84
2022/10/21 00:13:23;;;;;;;21.83;15.53;;;;;;;;;;5096366;28;20269;-84
2022/10/21 00:15:58;;;;;;;24.83;20.00;;;;;;;;;;5088655;28;20247;-84
2022/10/21 00:18:29;;;;;;;26.87;19.53;;;;;;;;;;5092692;28;20287;-84
2022/10/21 00:20:58;;;;;;;26.83;17.20;;;;;;;;;;5087838;28;20257;-84
2022/10/21 00:23:27;;;;;;;27.17;19.33;;;;;;;;;;5096440;28;20197;-83
2022/10/21 00:25:58;;;;;;;29.27;19.07;;;;;;;;;;5096576;28;20254;-84
2022/10/21 00:28:28;;;;;;;27.40;14.77;;;;;;;;;;5095804;28;20247;-84
2022/10/21 00:30:56;;;;;;;25.30;17.80;;;;;;;;;;5096557;28;20256;-84
2022/10/21 00:33:26;;;;;;;13.00;9.70;;;;;;;;;;5110464;28;20197;-84
2022/10/21 00:35:56;;;;;;;30.37;22.23;;;;;;;;;;5124778;27;20250;-84
2022/10/21 00:38:24;;;;;;;27.83;21.23;;;;;;;;;;5103707;28;20198;-83
2022/10/21 00:40:53;;;;;;;26.80;14.40;;;;;;;;;;5108885;28;20283;-84
2022/10/21 00:43:22;;;;;;;22.53;15.67;;;;;;;;;;5092046;28;20193;-84
2022/10/21 00:45:53;;;;;;;29.03;18.10;;;;;;;;;;5092251;28;20228;-84
2022/10/21 00:48:25;;;;;;;24.70;16.67;;;;;;;;;;5096215;28;20203;-84
2022/10/21 00:50:55;;;;;;;26.03;17.87;;;;;;;;;;5082593;28;20237;-84
2022/10/21 00:53:25;;;;;;;17.13;10.43;;;;;;;;;;5075752;28;20267;-84
2022/10/21 00:55:56;;;;;;;18.00;12.90;;;;;;;;;;5082583;28;20214;-84
2022/10/21 00:58:26;;;;;;;27.83;16.53;;;;;;;;;;5095975;28;20226;-83
2022/10/21 01:00:57;;;;;;;30.40;22.40;;;;;;;;;;5112965;28;20189;-84
2022/10/21 01:03:27;;;;;;;30.87;19.57;;;;;;;;;;5103382;28;20284;-84
2022/10/21 01:05:55;;;;;;;27.00;17.40;;;;;;;;;;5098195;28;20243;-84
2022/10/21 01:08:24;;;;;;;34.77;23.33;;;;;;;;;;5114280;28;20224;-84
2022/10/21 01:10:53;;;;;;;33.33;19.83;;;;;;;;;;5106595;28;20215;-83
2022/10/21 01:13:26;;;;;;;8.60;6.67;;;;;;;;;;5095700;28;20188;-83
2022/10/21 01:15:59;;;;;;;33.17;20.03;;;;;;;;;;5114058;28;20201;-83
2022/10/21 01:18:31;;;;;;;32.00;21.03;;;;;;;;;;5075497;28;20217;-83
2022/10/21 01:21:17;;;;;;;34.90;23.10;;;;;;;;;;5108631;28;20204;-83
2022/10/21 01:24:02;;;;;;;27.83;18.43;;;;;;;;;;5072039;28;20225;-83
2022/10/21 01:26:41;;;;;;;19.30;11.40;;;;;;;;;;5126438;27;20210;-83
2022/10/21 01:29:20;;;;;;;8.43;6.97;;;;;;;;;;5095300;28;20288;-83
2022/10/21 01:31:53;;;;;;;16.77;11.30;;;;;;;;;;5095881;28;20201;-83
2022/10/21 01:34:24;;;;;;;35.20;18.77;;;;;;;;;;5113193;28;20192;-83
2022/10/21 01:36:55;;;;;;;26.87;14.47;;;;;;;;;;5113664;28;20200;-83
2022/10/21 01:39:26;;;;;;;33.30;20.03;;;;;;;;;;5107376;28;20205;-83
2022/10/21 01:41:56;;;;;;;26.40;15.30;;;;;;;;;;5107021;28;20196;-83
2022/10/21 01:44:27;;;;;;;11.77;7.07;;;;;;;;;;5089924;28;20220;-83
2022/10/21 01:46:58;;;;;;;13.50;7.97;;;;;;;;;;5089647;28;20196;-84
2022/10/21 01:49:29;;;;;;;9.20;4.50;;;;;;;;;;5113647;28;20225;-84
2022/10/21 01:51:58;;;;;;;10.77;7.13;;;;;;;;;;5095121;28;20236;-84
2022/10/21 01:54:29;;;;;;;6.87;3.67;;;;;;;;;;5094997;28;20220;-84
2022/10/21 01:56:58;;;;;;;10.57;9.53;;;;;;;;;;5110671;28;20205;-84
2022/10/21 01:59:27;;;;;;;0.40;0.40;;;;;;;;;;5104192;28;20224;-84
2022/10/21 02:01:58;;;;;;;13.17;7.33;;;;;;;;;;5090987;28;20252;-84
2022/10/21 02:04:26;;;;;;;1.50;1.40;;;;;;;;;;5087660;28;20304;-84
2022/10/21 02:06:55;;;;;;;0.30;0.30;;;;;;;;;;5088518;28;20189;-84
2022/10/21 02:09:24;;;;;;;3.77;3.47;;;;;;;;;;5087483;28;20201;-84
2022/10/21 02:11:54;;;;;;;1.80;1.70;;;;;;;;;;5082016;28;20197;-84
2022/10/21 02:14:25;;;;;;;6.63;5.30;;;;;;;;;;5093906;28;20200;-84
2022/10/21 02:16:54;;;;;;;9.43;5.40;;;;;;;;;;5076207;28;20251;-84
2022/10/21 02:19:24;;;;;;;0.80;0.80;;;;;;;;;;5089858;28;20227;-84
2022/10/21 02:21:53;;;;;;;0.40;0.40;;;;;;;;;;5087234;28;20253;-84
2022/10/21 02:24:25;;;;;;;7.90;7.60;;;;;;;;;;5091037;28;20205;-84
2022/10/21 02:26:54;;;;;;;0.40;0.40;;;;;;;;;;5087347;28;20203;-84
2022/10/21 02:29:24;;;;;;;0.83;0.83;;;;;;;;;;5095020;28;20216;-84
2022/10/21 02:32:01;;;;;;;4.97;3.97;;;;;;;;;;5099518;28;20201;-84
2022/10/21 02:34:35;;;;;;;5.57;4.87;;;;;;;;;;5098912;28;20213;-84
2022/10/21 02:37:09;;;;;;;9.90;5.70;;;;;;;;;;5086175;28;20215;-84
2022/10/21 02:39:39;;;;;;;12.33;8.47;;;;;;;;;;5079399;28;20270;-84
2022/10/21 02:42:09;;;;;;;1.07;1.03;;;;;;;;;;5092524;28;20196;-84
2022/10/21 02:44:38;;;;;;;0.40;0.40;;;;;;;;;;5086915;28;20292;-84
2022/10/21 02:47:06;;;;;;;0.50;0.50;;;;;;;;;;5114375;28;20197;-84
2022/10/21 02:49:37;;;;;;;4.87;4.47;;;;;;;;;;5087678;28;20229;-84
2022/10/21 02:52:05;;;;;;;1.20;0.93;;;;;;;;;;5116059;28;20279;-84
2022/10/21 02:54:34;;;;;;;4.70;4.27;;;;;;;;;;5098766;28;20262;-85
2022/10/21 02:57:02;;;;;;;12.63;8.03;;;;;;;;;;5084856;28;20218;-84
2022/10/21 02:59:30;;;;;;;10.17;6.10;;;;;;;;;;5098297;28;20200;-84
2022/10/21 03:01:59;;;;;;;14.30;9.63;;;;;;;;;;5093616;28;20198;-84
2022/10/21 03:04:27;;;;;;;13.87;8.13;;;;;;;;;;5090000;28;20257;-84
2022/10/21 03:06:57;;;;;;;11.90;5.40;;;;;;;;;;5116280;28;20239;-84
2022/10/21 03:09:25;;;;;;;2.80;1.13;;;;;;;;;;5085874;28;20232;-84
2022/10/21 03:11:53;;;;;;;0.53;0.53;;;;;;;;;;5098098;28;20214;-84
2022/10/21 03:14:22;;;;;;;1.63;1.53;;;;;;;;;;5098397;28;20193;-84
2022/10/21 03:16:50;;;;;;;9.70;6.50;;;;;;;;;;5084738;28;20197;-84
2022/10/21 03:19:19;;;;;;;12.63;6.43;;;;;;;;;;5098076;28;20326;-84
2022/10/21 03:21:47;;;;;;;4.20;3.83;;;;;;;;;;5090209;28;20213;-84
2022/10/21 03:24:17;;;;;;;10.67;8.20;;;;;;;;;;5095990;28;20210;-84
2022/10/21 03:26:56;;;;;;;0.47;0.47;;;;;;;;;;5088128;28;20216;-84
2022/10/21 03:29:24;;;;;;;2.20;2.10;;;;;;;;;;5080615;28;20292;-84
2022/10/21 03:31:53;;;;;;;0.70;0.70;;;;;;;;;;5106776;28;20216;-84
2022/10/21 03:34:22;;;;;;;0.30;0.30;;;;;;;;;;5092415;28;20210;-84
2022/10/21 03:36:50;;;;;;;4.40;2.37;;;;;;;;;;5077947;28;20194;-84
2022/10/21 03:39:20;;;;;;;1.70;1.60;;;;;;;;;;5081361;28;20261;-84
2022/10/21 03:41:48;;;;;;;1.70;1.43;;;;;;;;;;5085319;28;20205;-84
2022/10/21 03:44:16;;;;;;;2.20;1.07;;;;;;;;;;5083621;28;20189;-84
2022/10/21 03:46:45;;;;;;;1.40;1.40;;;;;;;;;;5097399;28;20210;-84
2022/10/21 03:49:13;;;;;;;0.70;0.70;;;;;;;;;;5077841;28;20204;-84
2022/10/21 03:51:48;;;;;;;5.50;2.50;;;;;;;;;;5077250;28;20229;-84
2022/10/21 03:54:17;;;;;;;20.03;11.07;;;;;;;;;;5077074;28;20227;-84
2022/10/21 03:56:47;;;;;;;1.27;1.23;;;;;;;;;;5120009;27;20216;-84
2022/10/21 03:59:15;;;;;;;0.40;0.40;;;;;;;;;;5096764;28;20200;-84
2022/10/21 04:01:43;;;;;;;0.40;0.40;;;;;;;;;;5081526;28;20202;-84
2022/10/21 04:04:12;;;;;;;1.53;1.43;;;;;;;;;;5104224;28;20330;-84
2022/10/21 04:06:40;;;;;;;6.37;4.10;;;;;;;;;;5096779;28;20254;-84
2022/10/21 04:09:09;;;;;;;1.83;1.73;;;;;;;;;;5105139;28;20198;-84
2022/10/21 04:11:40;;;;;;;2.77;2.57;;;;;;;;;;5089920;28;20205;-84
2022/10/21 04:14:10;;;;;;;1.83;1.83;;;;;;;;;;5106188;28;20242;-84
2022/10/21 04:16:43;;;;;;;3.70;3.40;;;;;;;;;;5096683;28;20216;-84
2022/10/21 04:19:15;;;;;;;0.57;0.57;;;;;;;;;;5096645;28;20291;-84
2022/10/21 04:21:44;;;;;;;0.93;0.93;;;;;;;;;;5076780;28;20276;-84
2022/10/21 04:24:12;;;;;;;0.40;0.40;;;;;;;;;;5115074;27;20254;-84
2022/10/21 04:26:41;;;;;;;1.37;1.27;;;;;;;;;;5096707;28;20200;-84
2022/10/21 04:29:11;;;;;;;0.60;0.60;;;;;;;;;;5082600;28;20227;-84
2022/10/21 04:31:40;;;;;;;0.40;0.40;;;;;;;;;;5085035;28;20208;-84
2022/10/21 04:34:08;;;;;;;0.40;0.40;;;;;;;;;;5094841;28;20192;-84
2022/10/21 04:36:36;;;;;;;0.50;0.50;;;;;;;;;;5085644;28;20268;-84
2022/10/21 04:39:05;;;;;;;0.40;0.40;;;;;;;;;;5083030;28;20245;-84
2022/10/21 04:41:33;;;;;;;6.27;4.57;;;;;;;;;;5096146;28;20208;-84
2022/10/21 04:44:02;;;;;;;12.97;9.23;;;;;;;;;;5096082;28;20218;-84
2022/10/21 04:46:32;;;;;;;15.20;8.00;;;;;;;;;;5114569;28;20197;-84
2022/10/21 04:49:00;;;;;;;15.03;8.03;;;;;;;;;;5091685;28;20270;-84
2022/10/21 04:51:30;;;;;;;10.27;4.77;;;;;;;;;;5087715;28;20285;-84
2022/10/21 04:53:58;;;;;;;38.53;17.57;;;;;;;;;;5114528;28;20181;-84
2022/10/21 04:56:26;;;;;;;33.93;15.13;;;;;;;;;;5113967;28;20200;-84
2022/10/21 04:58:55;;;;;;;22.90;11.77;;;;;;;;;;5129745;27;20204;-84
2022/10/21 05:01:23;;;;;;;37.43;18.03;;;;;;;;;;5096130;28;20194;-84
2022/10/21 05:03:53;;;;;;;45.57;20.83;;;;;;;;;;5106945;28;20193;-84
2022/10/21 05:06:21;;;;;;;2.83;2.67;;;;;;;;;;5090475;28;20253;-84
2022/10/21 05:08:50;;;;;;;11.70;8.40;;;;;;;;;;5113852;28;20249;-84
2022/10/21 05:11:18;;;;;;;21.63;12.23;;;;;;;;;;5095531;28;20217;-84
2022/10/21 05:13:47;;;;;;;23.57;11.80;;;;;;;;;;5095793;28;20211;-84
2022/10/21 05:16:15;;;;;;;35.30;17.83;;;;;;;;;;5113476;28;20230;-84
2022/10/21 05:18:43;;;;;;;25.97;12.47;;;;;;;;;;5086567;28;20228;-84
2022/10/21 05:21:13;;;;;;;41.77;19.13;;;;;;;;;;5106979;28;20209;-84
2022/10/21 05:23:42;;;;;;;22.77;11.63;;;;;;;;;;5086031;28;20273;-83
2022/10/21 05:26:10;;;;;;;29.93;14.83;;;;;;;;;;5082468;28;20273;-84
2022/10/21 05:28:38;;;;;;;25.47;8.83;;;;;;;;;;5102863;28;20201;-84
2022/10/21 05:31:07;;;;;;;33.93;14.30;;;;;;;;;;5089065;28;20203;-84
2022/10/21 05:33:35;;;;;;;22.43;9.50;;;;;;;;;;5105240;28;20196;-83
2022/10/21 05:36:06;;;;;;;49.57;20.30;;;;;;;;;;5095430;28;20200;-82
2022/10/21 05:38:36;;;;;;;36.00;16.83;;;;;;;;;;5082587;28;20189;-82
2022/10/21 05:41:04;;;;;;;54.30;24.80;;;;;;;;;;5126372;28;20245;-82
2022/10/21 05:43:33;;;;;;;28.97;13.97;;;;;;;;;;5095543;28;20245;-82
2022/10/21 05:46:01;;;;;;;48.53;24.33;;;;;;;;;;5088920;28;20303;-82
2022/10/21 05:48:29;;;;;;;32.30;14.10;;;;;;;;;;5088970;28;20257;-82
2022/10/21 05:50:58;;;;;;;28.97;14.03;;;;;;;;;;5088677;28;20204;-83
2022/10/21 05:53:27;;;;;;;31.80;17.83;;;;;;;;;;5090046;28;20208;-82
2022/10/21 05:55:57;;;;;;;20.20;11.27;;;;;;;;;;5095425;28;20291;-82
2022/10/21 05:58:26;;;;;;;23.83;15.70;;;;;;;;;;5093989;28;20200;-82
2022/10/21 06:00:55;;;;;;;19.80;11.57;;;;;;;;;;5102557;28;20227;-83
2022/10/21 06:03:28;;;;;;;14.80;7.87;;;;;;;;;;5099092;28;20192;-82
2022/10/21 06:05:57;;;;;;;11.93;6.00;;;;;;;;;;5099355;28;20201;-81
2022/10/21 06:08:26;;;;;;;28.20;16.17;;;;;;;;;;5085972;28;20200;-82
2022/10/21 06:11:01;;;;;;;29.53;16.80;;;;;;;;;;5117476;28;20192;-82
2022/10/21 06:13:30;;;;;;;28.40;17.83;;;;;;;;;;5093176;28;20228;-82
2022/10/21 06:15:58;;;;;;;25.17;11.70;;;;;;;;;;5097395;28;20197;-82
2022/10/21 06:18:27;;;;;;;24.87;14.83;;;;;;;;;;5098483;28;20222;-82
2022/10/21 06:20:55;;;;;;;22.20;13.10;;;;;;;;;;5125965;27;20221;-82
2022/10/21 06:23:24;;;;;;;13.00;7.10;;;;;;;;;;5079781;28;20189;-82
2022/10/21 06:25:56;;;;;;;11.73;6.63;;;;;;;;;;5080169;28;20201;-82
2022/10/21 06:28:26;;;;;;;17.77;10.30;;;;;;;;;;5117390;28;20214;-81
2022/10/21 06:30:55;;;;;;;30.10;16.03;;;;;;;;;;5096371;28;20205;-82
2022/10/21 06:33:23;;;;;;;13.27;7.80;;;;;;;;;;5096836;28;20274;-81
2022/10/21 06:35:54;;;;;;;16.03;10.10;;;;;;;;;;5113710;28;20200;-81
2022/10/21 06:38:23;;;;;;;9.90;4.83;;;;;;;;;;5099191;28;20200;-81
2022/10/21 06:40:51;;;;;;;27.43;13.77;;;;;;;;;;5085456;28;20261;-82
2022/10/21 06:43:20;;;;;;;15.90;7.77;;;;;;;;;;5087529;28;20189;-81
2022/10/21 06:45:50;;;;;;;18.97;10.77;;;;;;;;;;5097324;28;20196;-81
2022/10/21 06:48:19;;;;;;;11.83;7.37;;;;;;;;;;5108753;28;20280;-81
2022/10/21 06:50:47;;;;;;;3.63;2.57;;;;;;;;;;5079258;28;20190;-82
2022/10/21 06:53:15;;;;;;;0.70;0.70;;;;;;;;;;5091360;28;20285;-81
2022/10/21 06:55:44;;;;;;;1.03;1.03;;;;;;;;;;5091964;28;20198;-82
2022/10/21 06:58:13;;;;;;;1.30;1.30;;;;;;;;;;5091943;28;20279;-82
2022/10/21 07:00:41;;;;;;;1.17;1.17;;;;;;;;;;5098620;28;20300;-81
2022/10/21 07:03:11;;;;;;;0.30;0.30;;;;;;;;;;5098139;28;20197;-82
2022/10/21 07:05:39;;;;;;;2.90;1.43;;;;;;;;;;5090506;28;20197;-82
2022/10/21 07:08:08;;;;;;;0.37;0.37;;;;;;;;;;5093503;28;20211;-82
2022/10/21 07:10:41;;;;;;;1.23;1.23;;;;;;;;;;5098302;28;20201;-81
2022/10/21 07:13:09;;;;;;;0.30;0.30;;;;;;;;;;5094435;28;20222;-82
2022/10/21 07:15:38;;;;;;;3.70;3.03;;;;;;;;;;5088454;28;20208;-81
2022/10/21 07:18:06;;;;;;;0.73;0.73;;;;;;;;;;5098128;28;20219;-82
2022/10/21 07:20:39;;;;;;;6.80;6.33;;;;;;;;;;5098063;28;20267;-82
2022/10/21 07:23:07;;;;;;;0.40;0.40;;;;;;;;;;5098317;28;20197;-82
2022/10/21 07:25:37;;;;;;;10.53;7.10;;;;;;;;;;5085955;28;20207;-81
2022/10/21 07:28:05;;;;;;;16.43;9.33;;;;;;;;;;5097179;28;20228;-81
2022/10/21 07:30:39;;;;;;;12.63;6.23;;;;;;;;;;5098153;28;20200;-82
2022/10/21 07:33:09;;;;;;;9.93;7.17;;;;;;;;;;5077961;28;20208;-81
2022/10/21 07:35:39;;;;;;;2.40;1.97;;;;;;;;;;5092466;28;20249;-81
2022/10/21 07:38:10;;;;;;;12.00;7.57;;;;;;;;;;5097704;28;20200;-81
2022/10/21 07:40:40;;;;;;;8.20;5.87;;;;;;;;;;5097170;28;20224;-81
2022/10/21 07:43:08;;;;;;;10.10;6.33;;;;;;;;;;5097905;28;20242;-81
2022/10/21 07:45:39;;;;;;;13.27;7.53;;;;;;;;;;5115457;28;20215;-81
2022/10/21 07:48:07;;;;;;;4.93;4.07;;;;;;;;;;5115816;28;20204;-82
2022/10/21 07:50:36;;;;;;;15.17;10.47;;;;;;;;;;5084331;28;20201;-81
2022/10/21 07:53:06;;;;;;;17.23;9.33;;;;;;;;;;5097511;28;20229;-81
2022/10/21 07:55:43;;;;;;;8.37;6.27;;;;;;;;;;5097513;28;20219;-81
2022/10/21 07:58:12;;;;;;;14.30;8.07;;;;;;;;;;5084102;28;20202;-81
2022/10/21 08:00:43;;;;;;;25.93;13.37;;;;;;;;;;5090352;28;20198;-81
2022/10/21 08:03:11;;;;;;;15.33;10.70;;;;;;;;;;5091080;28;20197;-81
2022/10/21 08:05:41;;;;;;;19.20;10.07;;;;;;;;;;5088980;28;20196;-82
2022/10/21 08:08:12;;;;;;;0.90;0.90;;;;;;;;;;5122168;27;20295;-80
2022/10/21 08:10:40;;;;;;;0.60;0.60;;;;;;;;;;5087696;28;20201;-81
2022/10/21 08:13:09;;;;;;;0.93;0.93;;;;;;;;;;5108729;28;20270;-82
2022/10/21 08:15:42;;;;;;;0.70;0.70;;;;;;;;;;5105726;28;20197;-82
2022/10/21 08:18:10;;;;;;;13.43;7.40;;;;;;;;;;5096816;28;20242;-82
2022/10/21 08:20:40;;;;;;;19.00;12.80;;;;;;;;;;5097373;28;20230;-82
2022/10/21 08:23:08;;;;;;;12.20;8.10;;;;;;;;;;5083078;28;20197;-82
2022/10/21 08:25:40;;;;;;;10.93;7.37;;;;;;;;;;5096338;28;20201;-82
2022/10/21 08:28:08;;;;;;;7.80;5.27;;;;;;;;;;5083501;28;20200;-82
2022/10/21 08:30:37;;;;;;;17.63;10.83;;;;;;;;;;5083646;28;20208;-82
2022/10/21 08:33:05;;;;;;;16.53;10.87;;;;;;;;;;5096677;28;20208;-82
2022/10/21 08:35:34;;;;;;;16.03;8.53;;;;;;;;;;5096834;28;20203;-81
2022/10/21 08:38:02;;;;;;;1.47;1.47;;;;;;;;;;5114806;28;20194;-81
2022/10/21 08:40:35;;;;;;;7.83;4.53;;;;;;;;;;5083047;28;20189;-83
2022/10/21 08:43:09;;;;;;;14.80;9.20;;;;;;;;;;5096295;28;20197;-82
2022/10/21 08:45:42;;;;;;;0.93;0.93;;;;;;;;;;5095437;28;20196;-81
2022/10/21 08:48:15;;;;;;;0.53;0.53;;;;;;;;;;5085295;28;20206;-82
2022/10/21 08:50:46;;;;;;;0.50;0.50;;;;;;;;;;5095491;28;20284;-82
2022/10/21 08:53:17;;;;;;;0.30;0.30;;;;;;;;;;5095675;28;20234;-82
2022/10/21 08:55:46;;;;;;;4.87;3.53;;;;;;;;;;5096481;28;20201;-82
2022/10/21 08:58:18;;;;;;;8.80;6.63;;;;;;;;;;5096200;28;20234;-82
2022/10/21 09:00:49;;;;;;;8.40;7.50;;;;;;;;;;5076708;28;20212;-82
2022/10/21 09:03:21;;;;;;;5.93;3.43;;;;;;;;;;5096067;28;20199;-82
2022/10/21 09:06:00;;;;;;;9.27;4.70;;;;;;;;;;5086806;28;20196;-82
2022/10/21 09:08:36;;;;;;;11.10;8.20;;;;;;;;;;5089497;28;20206;-82
2022/10/21 09:11:10;;;;;;;10.07;8.27;;;;;;;;;;5089225;28;20210;-82
2022/10/21 09:13:49;;;;;;;1.37;1.33;;;;;;;;;;5088331;28;20215;-82
2022/10/21 09:16:20;;;;;;;8.77;5.57;;;;;;;;;;5092092;28;20340;-82
2022/10/21 09:18:56;;;;;;;6.37;5.50;;;;;;;;;;5096034;28;20205;-82
2022/10/21 09:21:29;;;;;;;15.10;11.50;;;;;;;;;;5091394;28;20230;-82
2022/10/21 09:24:02;;;;;;;13.03;8.17;;;;;;;;;;5094079;28;20194;-82
2022/10/21 09:26:36;;;;;;;14.03;8.90;;;;;;;;;;5081869;28;20204;-82
2022/10/21 09:29:13;;;;;;;1.03;1.03;;;;;;;;;;5082242;28;20205;-82
2022/10/21 09:31:43;;;;;;;9.80;7.10;;;;;;;;;;5075708;28;20198;-82
2022/10/21 09:34:17;;;;;;;8.00;4.60;;;;;;;;;;5091607;28;20216;-83
2022/10/21 09:36:47;;;;;;;11.57;8.03;;;;;;;;;;5096046;28;20211;-83
2022/10/21 09:39:18;;;;;;;9.37;5.73;;;;;;;;;;5095398;28;20205;-82
2022/10/21 09:41:52;;;;;;;7.20;4.33;;;;;;;;;;5095823;28;20206;-83
2022/10/21 09:44:27;;;;;;;7.20;4.50;;;;;;;;;;5082693;28;20232;-83
2022/10/21 09:46:58;;;;;;;11.83;7.73;;;;;;;;;;5094701;28;20200;-83
2022/10/21 09:49:29;;;;;;;16.30;10.20;;;;;;;;;;5083434;28;20201;-81
2022/10/21 09:52:19;;;;;;;14.40;9.23;;;;;;;;;;5090402;28;20270;-82
2022/10/21 09:54:49;;;;;;;13.37;11.43;;;;;;;;;;5087265;28;20236;-82
2022/10/21 09:57:23;;;;;;;12.00;10.73;;;;;;;;;;5082524;28;20259;-83
2022/10/21 09:59:55;;;;;;;13.07;10.80;;;;;;;;;;5095547;28;20206;-82
2022/10/21 10:02:28;;;;;;;16.03;11.33;;;;;;;;;;5095580;28;20267;-82
2022/10/21 10:05:04;;;;;;;9.93;6.53;;;;;;;;;;5111438;28;20186;-81
2022/10/21 10:07:34;;;;;;;13.43;7.67;;;;;;;;;;5104157;28;20200;-82
2022/10/21 10:10:03;;;;;;;15.10;10.23;;;;;;;;;;5082713;28;20186;-82
2022/10/21 10:12:32;;;;;;;8.23;5.17;;;;;;;;;;5102911;28;20197;-84
2022/10/21 10:15:22;;;;;;;12.43;10.40;;;;;;;;;;5095968;28;20205;-84
2022/10/21 10:17:57;;;;;;;10.53;8.67;;;;;;;;;;5082636;28;21117;-84
2022/10/21 10:20:26;;;;;;;10.10;7.43;;;;;;;;;;5078837;28;20226;-83
2022/10/21 10:23:18;;;;;;;10.90;8.67;;;;;;;;;;5093580;28;20198;-84
2022/10/21 10:25:50;;;;;;;12.73;7.07;;;;;;;;;;5095429;28;20206;-84
2022/10/21 10:28:20;;;;;;;13.70;8.17;;;;;;;;;;5076279;28;20191;-84
2022/10/21 10:30:55;;;;;;;10.37;9.33;;;;;;;;;;5079146;28;20217;-85
2022/10/21 10:33:25;;;;;;;15.10;9.70;;;;;;;;;;5095406;28;20274;-84
2022/10/21 10:35:56;;;;;;;6.57;5.40;;;;;;;;;;5082501;28;20210;-83
2022/10/21 10:38:27;;;;;;;9.30;5.53;;;;;;;;;;5095759;28;20202;-84
2022/10/21 10:41:10;;;;;;;6.67;4.77;;;;;;;;;;5095252;28;20181;-84
2022/10/21 10:43:44;;;;;;;10.47;7.77;;;;;;;;;;5081299;28;20249;-84
2022/10/21 10:46:24;;;;;;;11.10;8.03;;;;;;;;;;5112138;28;20225;-84
2022/10/21 10:48:56;;;;;;;16.93;9.43;;;;;;;;;;5084100;28;20284;-84
2022/10/21 10:51:26;;;;;;;8.60;7.57;;;;;;;;;;5095212;28;20290;-85
2022/10/21 10:54:02;;;;;;;12.10;9.20;;;;;;;;;;5094671;28;20195;-84
2022/10/21 10:56:34;;;;;;;12.83;6.57;;;;;;;;;;5082288;28;20211;-84
2022/10/21 10:59:06;;;;;;;6.13;5.47;;;;;;;;;;5086330;28;20207;-85
2022/10/21 11:01:40;;;;;;;10.60;8.83;;;;;;;;;;5094489;28;20290;-85
2022/10/21 11:04:15;;;;;;;8.53;5.70;;;;;;;;;;5095895;28;20199;-85
2022/10/21 11:06:49;;;;;;;14.77;5.50;;;;;;;;;;5086781;28;20200;-84
2022/10/21 11:09:18;;;;;;;10.33;6.93;;;;;;;;;;5067463;28;20215;-84
2022/10/21 11:11:53;;;;;;;9.67;5.30;;;;;;;;;;5089196;28;20227;-84
2022/10/21 11:14:22;;;;;;;6.83;4.80;;;;;;;;;;5075608;28;20223;-84
2022/10/21 11:16:57;;;;;;;10.30;7.53;;;;;;;;;;5081369;28;20201;-84
2022/10/21 11:19:36;;;;;;;8.10;5.90;;;;;;;;;;5080851;28;20231;-84
2022/10/21 11:22:12;;;;;;;1.97;1.87;;;;;;;;;;5085166;28;20209;-83
2022/10/21 11:24:55;;;;;;;8.03;5.60;;;;;;;;;;5080413;28;20203;-84
2022/10/21 11:27:28;;;;;;;5.27;2.77;;;;;;;;;;5068324;28;20290;-85
2022/10/21 11:30:03;;;;;;;14.07;6.40;;;;;;;;;;5075512;28;20202;-84
2022/10/21 11:32:45;;;;;;;8.03;4.10;;;;;;;;;;5074902;28;20240;-84
2022/10/21 11:35:23;;;;;;;1.57;1.47;;;;;;;;;;5075127;28;20219;-84
2022/10/21 11:37:57;;;;;;;11.00;5.87;;;;;;;;;;5076336;28;20215;-85
2022/10/21 11:40:33;;;;;;;3.90;3.23;;;;;;;;;;5089085;28;20200;-84
2022/10/21 11:43:06;;;;;;;12.00;5.77;;;;;;;;;;5085944;28;20208;-84
2022/10/21 11:45:40;;;;;;;7.27;6.50;;;;;;;;;;5075806;28;20207;-84
2022/10/21 11:48:17;;;;;;;6.67;5.93;;;;;;;;;;5075311;28;20207;-84
2022/10/21 11:50:47;;;;;;;9.60;5.90;;;;;;;;;;5075342;28;20197;-84
2022/10/21 11:53:21;;;;;;;10.30;6.73;;;;;;;;;;5069549;28;20225;-84
2022/10/21 11:55:54;;;;;;;10.40;7.33;;;;;;;;;;5055482;28;20271;-84
2022/10/21 11:58:30;;;;;;;9.53;6.13;;;;;;;;;;5069594;28;20197;-84
2022/10/21 12:01:05;;;;;;;4.43;4.00;;;;;;;;;;5064809;28;20202;-84
2022/10/21 12:03:52;;;;;;;9.57;6.83;;;;;;;;;;5072498;28;20199;-84
2022/10/21 12:06:27;;;;;;;11.77;7.30;;;;;;;;;;5076485;28;20205;-84
2022/10/21 12:08:59;;;;;;;12.90;9.13;;;;;;;;;;5063998;28;20199;-84
2022/10/21 12:11:29;;;;;;;8.77;6.50;;;;;;;;;;5073715;28;20210;-84
2022/10/21 12:14:00;;;;;;;5.67;5.07;;;;;;;;;;5064666;28;20256;-84
2022/10/21 12:16:31;;;;;;;8.73;5.63;;;;;;;;;;5070186;28;20214;-84
2022/10/21 12:19:05;;;;;;;5.10;3.57;;;;;;;;;;5067044;28;20193;-84
2022/10/21 12:21:36;;;;;;;8.00;6.67;;;;;;;;;;5073353;28;20231;-84
2022/10/21 12:24:07;;;;;;;8.87;6.03;;;;;;;;;;5061649;28;20221;-84
2022/10/21 12:26:37;;;;;;;8.67;6.40;;;;;;;;;;5055622;28;20202;-84
2022/10/21 12:29:09;;;;;;;4.67;4.17;;;;;;;;;;5069338;28;20247;-84
2022/10/21 12:31:44;;;;;;;2.20;2.10;;;;;;;;;;5074851;28;20206;-84
2022/10/21 12:34:17;;;;;;;2.37;2.23;;;;;;;;;;5061634;28;20197;-85
2022/10/21 12:36:49;;;;;;;6.77;4.40;;;;;;;;;;5073819;28;20220;-85
2022/10/21 12:39:38;;;;;;;9.00;6.20;;;;;;;;;;5073490;28;20205;-84
2022/10/21 12:42:11;;;;;;;9.40;1.80;;;;;;;;;;5073688;28;20217;-84
2022/10/21 12:44:41;;;;;;;5.63;3.73;;;;;;;;;;5073958;28;20201;-86
2022/10/21 12:47:22;;;;;;;8.30;5.17;;;;;;;;;;5071122;28;20198;-84
2022/10/21 12:50:06;;;;;;;6.03;4.43;;;;;;;;;;5066137;28;20209;-84
2022/10/21 12:52:37;;;;;;;5.33;4.10;;;;;;;;;;5075022;28;20260;-85
2022/10/21 12:55:10;;;;;;;4.87;3.83;;;;;;;;;;5092081;28;20223;-84
2022/10/21 12:57:40;;;;;;;5.50;3.20;;;;;;;;;;5083428;28;20201;-84
2022/10/21 13:00:28;;;;;;;3.40;1.37;;;;;;;;;;5090284;28;20208;-84
2022/10/21 13:03:02;;;;;;;8.57;3.00;;;;;;;;;;5074355;28;20229;-85
2022/10/21 13:05:46;;;;;;;3.43;2.00;;;;;;;;;;5073867;28;20198;-84
2022/10/21 13:08:26;;;;;;;5.73;3.33;;;;;;;;;;5078564;28;20197;-85
2022/10/21 13:11:16;;;;;;;4.50;2.20;;;;;;;;;;5091976;28;20204;-85
2022/10/21 13:13:46;;;;;;;2.77;1.03;;;;;;;;;;5073334;28;20216;-84
2022/10/21 13:16:41;;;;;;;1.53;1.43;;;;;;;;;;5075225;28;20231;-84
2022/10/21 13:19:29;;;;;;;4.27;1.73;;;;;;;;;;5044673;28;20205;-84
2022/10/21 13:22:02;;;;;;;3.23;1.60;;;;;;;;;;5083216;28;20225;-84
2022/10/21 13:24:33;;;;;;;5.73;2.93;;;;;;;;;;5089307;28;20204;-84
2022/10/21 13:27:02;;;;;;;4.10;1.43;;;;;;;;;;5092135;28;20213;-84
2022/10/21 13:29:41;;;;;;;7.63;3.03;;;;;;;;;;5087030;28;20206;-83
2022/10/21 13:32:21;;;;;;;3.97;2.53;;;;;;;;;;5087431;28;20264;-84
2022/10/21 13:35:11;;;;;;;8.13;3.70;;;;;;;;;;5072734;28;20293;-84
2022/10/21 13:37:41;;;;;;;2.43;1.90;;;;;;;;;;5053522;28;20198;-84
2022/10/21 13:40:16;;;;;;;1.17;1.17;;;;;;;;;;5084941;28;20196;-84
2022/10/21 13:42:48;;;;;;;1.53;1.40;;;;;;;;;;5080299;28;20267;-84
2022/10/21 13:45:23;;;;;;;1.37;1.23;;;;;;;;;;5092848;28;20213;-84
2022/10/21 13:48:02;;;;;;;1.27;1.17;;;;;;;;;;5080769;28;20197;-84
2022/10/21 13:50:32;;;;;;;1.27;1.00;;;;;;;;;;5088305;28;20262;-84
2022/10/21 13:53:02;;;;;;;0.80;0.80;;;;;;;;;;5077680;28;20231;-83
2022/10/21 13:55:34;;;;;;;7.50;2.47;;;;;;;;;;5092241;28;20198;-84
2022/10/21 13:58:02;;;;;;;4.10;1.43;;;;;;;;;;5079832;28;20229;-83
2022/10/21 14:00:32;;;;;;;1.23;0.60;;;;;;;;;;5073339;28;20207;-84
2022/10/21 14:03:01;;;;;;;2.53;1.33;;;;;;;;;;5072559;28;20201;-84
2022/10/21 14:05:31;;;;;;;3.83;1.83;;;;;;;;;;5072458;28;20210;-83
2022/10/21 14:08:00;;;;;;;8.27;3.00;;;;;;;;;;5086294;28;20204;-84
2022/10/21 14:10:29;;;;;;;3.13;1.57;;;;;;;;;;5091711;28;20213;-84
2022/10/21 14:13:00;;;;;;;3.83;1.83;;;;;;;;;;5078592;28;20216;-84
2022/10/21 14:15:32;;;;;;;2.30;1.57;;;;;;;;;;5082456;28;20207;-84
2022/10/21 14:18:00;;;;;;;3.47;1.70;;;;;;;;;;5089588;28;20240;-84
2022/10/21 14:20:34;;;;;;;6.67;2.60;;;;;;;;;;5091516;28;20216;-84
2022/10/21 14:23:03;;;;;;;4.13;1.80;;;;;;;;;;5075071;28;20194;-84
2022/10/21 14:25:33;;;;;;;3.83;1.30;;;;;;;;;;5087701;28;20205;-84
2022/10/21 14:28:04;;;;;;;0.97;0.87;;;;;;;;;;5083108;28;20193;-84
2022/10/21 14:30:35;;;;;;;4.30;1.80;;;;;;;;;;5097168;28;20201;-83
2022/10/21 14:33:07;;;;;;;6.07;1.10;;;;;;;;;;5095715;28;20303;-84
2022/10/21 14:35:35;;;;;;;4.47;1.93;;;;;;;;;;5082014;28;20209;-84
2022/10/21 14:38:20;;;;;;;7.67;1.37;;;;;;;;;;5095318;28;20209;-84
2022/10/21 14:40:56;;;;;;;3.40;1.47;;;;;;;;;;5077629;28;20203;-84
2022/10/21 14:43:31;;;;;;;3.83;1.57;;;;;;;;;;5088391;28;20224;-84
2022/10/21 14:46:00;;;;;;;7.70;2.33;;;;;;;;;;5082613;28;20263;-84
2022/10/21 14:48:30;;;;;;;5.93;2.03;;;;;;;;;;5095399;28;20228;-84
2022/10/21 14:51:00;;;;;;;5.07;1.90;;;;;;;;;;5082885;28;20201;-84
2022/10/21 14:53:31;;;;;;;2.80;1.90;;;;;;;;;;5094815;28;20321;-84
2022/10/21 14:56:01;;;;;;;5.90;1.83;;;;;;;;;;5095039;28;20205;-85
2022/10/21 14:58:32;;;;;;;4.70;2.10;;;;;;;;;;5081432;28;20201;-86